Time;durP1;ratioP1;P1;durP2;ratioP2;P2;SDS_P1;SDS_P2;PMS_P1;PMS_P2;Temp;Humidity;BMP_temperature;BMP_pressure;BME280_temperature;BME280_humidity;BME280_pressure;Samples;Min_cycle;Max_cycle;Signal;HPM_P1;HPM_P2
2021/10/16 00:01:56;;;;;;;11.95;3.53;;;;;;;8.48;89.27;102385.09;4961435;28;20044;-90
2021/10/16 00:04:21;;;;;;;14.93;3.83;;;;;;;8.50;89.48;102391.19;4960631;28;20034;-90
2021/10/16 00:06:47;;;;;;;10.50;3.78;;;;;;;8.49;89.61;102387.69;4960922;28;20034;-90
2021/10/16 00:09:12;;;;;;;10.95;4.00;;;;;;;8.52;89.72;102389.44;4945209;28;20043;-90
2021/10/16 00:11:37;;;;;;;11.02;3.55;;;;;;;8.52;89.75;102386.81;4944639;28;20035;-90
2021/10/16 00:14:03;;;;;;;12.30;4.07;;;;;;;8.57;89.97;102390.28;4929435;28;20042;-90
2021/10/16 00:16:28;;;;;;;12.20;3.63;;;;;;;8.59;90.10;102388.53;4960804;28;20042;-90
2021/10/16 00:18:54;;;;;;;12.27;3.75;;;;;;;8.56;90.02;102380.69;4944841;28;20031;-90
2021/10/16 00:21:19;;;;;;;8.30;3.53;;;;;;;8.56;89.96;102381.56;4944608;28;20031;-90
2021/10/16 00:23:46;;;;;;;10.48;3.60;;;;;;;8.56;89.69;102381.56;4944955;28;20055;-89
2021/10/16 00:26:12;;;;;;;14.27;4.28;;;;;;;8.57;89.63;102383.31;4960461;28;20045;-90
2021/10/16 00:28:38;;;;;;;12.75;4.25;;;;;;;8.59;89.82;102391.97;4944499;28;20050;-90
2021/10/16 00:31:04;;;;;;;7.47;3.55;;;;;;;8.60;89.95;102380.69;4944782;28;20285;-90
2021/10/16 00:33:29;;;;;;;8.82;3.95;;;;;;;8.64;89.96;102376.25;4944413;28;20056;-90
2021/10/16 00:35:54;;;;;;;15.55;4.13;;;;;;;8.66;89.86;102379.75;4928780;28;20173;-90
2021/10/16 00:38:20;;;;;;;10.05;3.47;;;;;;;8.63;89.90;102374.56;4959903;28;20035;-90
2021/10/16 00:40:45;;;;;;;11.10;4.13;;;;;;;8.65;89.74;102375.41;4928526;28;20081;-90
2021/10/16 00:43:11;;;;;;;10.73;3.92;;;;;;;8.64;89.74;102379.75;4944836;28;20041;-90
2021/10/16 00:45:36;;;;;;;10.40;3.97;;;;;;;8.66;89.86;102374.53;4944213;28;20038;-90
2021/10/16 00:48:02;;;;;;;13.48;4.05;;;;;;;8.67;89.96;102368.41;4960495;28;20031;-90
2021/10/16 00:50:28;;;;;;;14.90;4.68;;;;;;;8.69;90.13;102376.25;4943938;28;20030;-90
2021/10/16 00:52:53;;;;;;;13.10;3.95;;;;;;;8.68;90.24;102372.78;4944293;28;20031;-90
2021/10/16 00:55:19;;;;;;;11.73;4.82;;;;;;;8.70;90.30;102375.38;4923261;29;20309;-91
2021/10/16 00:57:45;;;;;;;5.80;2.97;;;;;;;8.74;90.45;102387.53;4939476;28;20030;-90
2021/10/16 01:00:11;;;;;;;8.73;4.15;;;;;;;8.76;90.67;102378.78;4940900;29;20063;-90
2021/10/16 01:02:36;;;;;;;7.07;4.05;;;;;;;8.79;90.84;102376.16;4940542;29;20038;-90
2021/10/16 01:05:03;;;;;;;13.02;4.30;;;;;;;8.80;90.79;102374.41;4941026;29;20039;-90
2021/10/16 01:07:29;;;;;;;9.25;3.92;;;;;;;8.81;90.84;102379.63;4940700;29;20043;-90
2021/10/16 01:09:54;;;;;;;13.15;4.57;;;;;;;8.81;90.26;102373.53;4941049;29;20366;-90
2021/10/16 01:12:20;;;;;;;22.27;4.57;;;;;;;8.80;89.80;102372.69;4940245;29;20420;-90
2021/10/16 01:14:53;;;;;;;9.90;4.50;;;;;;;8.83;89.66;102377.00;4940783;29;20034;-90
2021/10/16 01:17:19;;;;;;;12.65;4.55;;;;;;;8.82;89.76;102368.28;4956403;28;20043;-90
2021/10/16 01:19:44;;;;;;;10.13;4.55;;;;;;;8.84;89.67;102370.88;4940942;29;20031;-90
2021/10/16 01:22:10;;;;;;;8.95;4.43;;;;;;;8.84;89.87;102374.38;4940767;29;20563;-90
2021/10/16 01:24:36;;;;;;;10.80;4.35;;;;;;;8.86;89.85;102374.38;4940147;29;20263;-90
2021/10/16 01:27:01;;;;;;;10.88;3.75;;;;;;;8.87;89.95;102375.22;4940971;28;20038;-90
2021/10/16 01:29:28;;;;;;;12.15;4.10;;;;;;;8.87;89.81;102364.78;4955918;29;20339;-90
2021/10/16 01:31:53;;;;;;;10.98;3.90;;;;;;;8.87;89.90;102356.94;4940921;29;20121;-90
2021/10/16 01:34:19;;;;;;;11.48;4.28;;;;;;;8.87;89.73;102360.41;4924146;29;20449;-91
2021/10/16 01:36:46;;;;;;;10.38;4.03;;;;;;;8.84;90.04;102363.91;4940828;29;20043;-90
2021/10/16 01:39:11;;;;;;;16.90;4.32;;;;;;;8.89;89.81;102365.63;4941061;29;20027;-90
2021/10/16 01:41:37;;;;;;;11.88;4.10;;;;;;;8.88;90.08;102362.16;4924341;29;20241;-90
2021/10/16 01:44:06;;;;;;;17.27;4.45;;;;;;;8.88;90.04;102364.75;4940867;29;20037;-90
2021/10/16 01:46:31;;;;;;;11.35;3.53;;;;;;;8.85;90.08;102354.31;4940038;29;20426;-90
2021/10/16 01:48:57;;;;;;;15.77;4.75;;;;;;;8.84;90.05;102356.09;4940576;29;20031;-90
2021/10/16 01:51:22;;;;;;;8.45;4.15;;;;;;;8.87;90.24;102354.31;4955774;29;20138;-90
2021/10/16 01:53:48;;;;;;;15.10;4.30;;;;;;;8.87;90.30;102355.19;4940611;29;20402;-90
2021/10/16 01:56:13;;;;;;;19.35;4.70;;;;;;;8.88;90.19;102350.81;4938392;29;20265;-90
2021/10/16 01:58:39;;;;;;;13.40;4.03;;;;;;;8.89;90.47;102358.63;4921113;29;20225;-90
2021/10/16 02:01:04;;;;;;;14.30;4.47;;;;;;;8.91;90.61;102356.00;4921431;29;20082;-90
2021/10/16 02:03:29;;;;;;;10.38;3.55;;;;;;;8.91;90.61;102351.66;4920691;29;20231;-90
2021/10/16 02:05:55;;;;;;;9.68;3.45;;;;;;;8.92;90.57;102347.31;4937314;29;20042;-90
2021/10/16 02:08:20;;;;;;;18.70;5.22;;;;;;;8.92;90.73;102353.41;4921023;29;20103;-90
2021/10/16 02:10:46;;;;;;;11.10;4.00;;;;;;;8.90;90.46;102339.47;4937084;29;20046;-91
2021/10/16 02:13:11;;;;;;;13.13;3.83;;;;;;;8.91;90.20;102351.66;4921480;29;20042;-90
2021/10/16 02:15:37;;;;;;;8.55;3.83;;;;;;;8.92;90.10;102347.31;4920973;29;20241;-90
2021/10/16 02:18:02;;;;;;;13.60;3.35;;;;;;;8.91;90.06;102348.19;4921445;29;20028;-90
2021/10/16 02:20:28;;;;;;;11.85;3.70;;;;;;;8.92;89.92;102337.72;4936651;29;20044;-90
2021/10/16 02:22:53;;;;;;;13.90;4.50;;;;;;;8.90;89.92;102343.84;4921056;29;20409;-90
2021/10/16 02:25:18;;;;;;;13.10;3.80;;;;;;;8.88;89.57;102343.84;4936679;29;20048;-90
2021/10/16 02:27:44;;;;;;;16.13;4.28;;;;;;;8.83;89.11;102343.03;4937010;29;20340;-90
2021/10/16 02:30:10;;;;;;;8.75;3.67;;;;;;;8.80;88.73;102343.94;4921298;29;20058;-90
2021/10/16 02:32:35;;;;;;;10.88;3.65;;;;;;;8.76;88.15;102342.22;4920606;29;20047;-90
2021/10/16 02:35:01;;;;;;;18.67;3.65;;;;;;;8.73;88.12;102346.59;4936799;29;20405;-90
2021/10/16 02:37:27;;;;;;;7.15;3.30;;;;;;;8.70;88.55;102342.28;4936219;29;20035;-90
2021/10/16 02:39:52;;;;;;;7.93;3.78;;;;;;;8.68;88.65;102337.94;4921099;29;20360;-89
2021/10/16 02:42:18;;;;;;;8.10;3.30;;;;;;;8.63;88.10;102346.69;4920423;29;20105;-90
2021/10/16 02:44:43;;;;;;;13.48;3.35;;;;;;;8.60;87.93;102340.63;4920986;29;20332;-91
2021/10/16 02:47:11;;;;;;;9.82;3.75;;;;;;;8.55;87.74;102347.63;4920793;29;20046;-89
2021/10/16 02:49:37;;;;;;;11.98;3.53;;;;;;;8.49;87.41;102352.91;4937238;29;20362;-89
2021/10/16 02:52:03;;;;;;;11.60;3.67;;;;;;;8.46;87.45;102353.81;4924774;29;20036;-89
2021/10/16 02:54:28;;;;;;;12.13;3.40;;;;;;;8.41;87.56;102355.53;4924672;29;20282;-89
2021/10/16 02:56:54;;;;;;;13.95;3.70;;;;;;;8.37;87.52;102352.09;4931393;29;20391;-90
2021/10/16 02:59:19;;;;;;;12.77;3.35;;;;;;;8.33;88.12;102341.66;4958798;28;20093;-90
2021/10/16 03:01:44;;;;;;;10.45;3.38;;;;;;;8.29;87.74;102343.44;4943283;29;20307;-90
2021/10/16 03:04:10;;;;;;;11.68;4.10;;;;;;;8.23;87.73;102346.94;4943060;29;20040;-90
2021/10/16 03:06:35;;;;;;;13.48;3.25;;;;;;;8.19;87.60;102349.59;4958528;29;20385;-89
2021/10/16 03:09:01;;;;;;;8.27;2.90;;;;;;;8.16;87.78;102352.22;4942898;29;20031;-90
2021/10/16 03:11:26;;;;;;;14.48;3.58;;;;;;;8.13;87.86;102352.22;4942500;29;20034;-90
2021/10/16 03:13:51;;;;;;;12.45;3.65;;;;;;;8.12;87.93;102354.00;4926941;29;20551;-90
2021/10/16 03:16:17;;;;;;;13.82;3.85;;;;;;;8.10;88.11;102352.28;4942710;29;20031;-90
2021/10/16 03:18:46;;;;;;;7.75;3.00;;;;;;;8.05;87.70;102357.50;4942734;29;20043;-89
2021/10/16 03:21:11;;;;;;;17.10;3.50;;;;;;;8.01;87.47;102354.06;4958960;28;20054;-90
2021/10/16 03:23:37;;;;;;;5.97;2.53;;;;;;;7.96;87.32;102348.00;4926474;29;20134;-90
2021/10/16 03:26:02;;;;;;;7.93;2.90;;;;;;;7.93;87.35;102350.63;4958830;29;20402;-90
2021/10/16 03:28:28;;;;;;;7.88;2.45;;;;;;;7.90;87.58;102355.84;4942383;29;20376;-90
2021/10/16 03:30:53;;;;;;;9.25;2.80;;;;;;;7.87;87.61;102346.28;4975024;28;20031;-90
2021/10/16 03:33:18;;;;;;;7.68;3.00;;;;;;;7.84;87.52;102346.31;4942044;29;20058;-90
2021/10/16 03:35:44;;;;;;;10.57;2.65;;;;;;;7.81;87.50;102343.72;4942458;29;20039;-90
2021/10/16 03:38:09;;;;;;;7.57;3.17;;;;;;;7.78;87.71;102342.88;4942642;29;20034;-90
2021/10/16 03:40:35;;;;;;;10.20;2.95;;;;;;;7.75;87.64;102342.88;4942124;29;20386;-90
2021/10/16 03:43:00;;;;;;;6.70;2.45;;;;;;;7.72;87.58;102341.16;4958402;29;20259;-89
2021/10/16 03:45:26;;;;;;;13.00;2.67;;;;;;;7.67;87.82;102335.97;4925872;29;20267;-90
2021/10/16 03:47:51;;;;;;;15.13;2.88;;;;;;;7.64;87.69;102336.00;4942300;29;20031;-90
2021/10/16 03:50:17;;;;;;;16.60;3.28;;;;;;;7.61;87.61;102341.22;4942203;29;20035;-90
2021/10/16 03:52:43;;;;;;;8.32;2.85;;;;;;;7.59;88.06;102335.13;4941965;28;20039;-91
2021/10/16 03:55:08;;;;;;;8.13;3.03;;;;;;;7.58;87.93;102338.59;4926491;29;20039;-90
2021/10/16 03:57:34;;;;;;;10.02;3.03;;;;;;;7.55;88.26;102340.34;4929392;29;20043;-90
2021/10/16 04:00:00;;;;;;;11.20;2.55;;;;;;;7.53;88.33;102343.00;4922976;29;20122;-89
2021/10/16 04:02:26;;;;;;;11.27;2.67;;;;;;;7.48;88.32;102335.19;4921423;29;20051;-90
2021/10/16 04:04:52;;;;;;;6.22;2.10;;;;;;;7.46;88.23;102331.72;4923521;29;20071;-90
2021/10/16 04:07:18;;;;;;;11.70;3.03;;;;;;;7.45;87.91;102336.94;4922813;29;20035;-90
2021/10/16 04:09:43;;;;;;;5.72;2.65;;;;;;;7.43;88.03;102334.31;4923189;29;20040;-90
2021/10/16 04:12:09;;;;;;;6.78;2.67;;;;;;;7.42;88.05;102327.41;4923172;29;20037;-90
2021/10/16 04:14:34;;;;;;;7.28;1.80;;;;;;;7.38;88.03;102325.66;4922495;29;20046;-90
2021/10/16 04:17:00;;;;;;;8.05;2.92;;;;;;;7.38;87.70;102336.06;4938576;29;20364;-90
2021/10/16 04:19:25;;;;;;;10.00;2.63;;;;;;;7.36;88.14;102323.94;4922242;29;20035;-89
2021/10/16 04:21:51;;;;;;;6.20;2.00;;;;;;;7.32;88.08;102332.66;4923124;29;20042;-90
2021/10/16 04:24:16;;;;;;;9.65;2.13;;;;;;;7.32;87.96;102333.50;4938590;29;20043;-90
2021/10/16 04:26:42;;;;;;;9.43;2.30;;;;;;;7.29;87.66;102330.91;4922631;29;20038;-90
2021/10/16 04:29:07;;;;;;;7.35;2.38;;;;;;;7.24;87.65;102330.94;4938462;29;20115;-90
2021/10/16 04:31:33;;;;;;;7.20;2.45;;;;;;;7.22;87.67;102329.19;4938138;29;20043;-89
2021/10/16 04:33:59;;;;;;;7.18;2.28;;;;;;;7.17;87.47;102330.94;4938426;29;20348;-90
2021/10/16 04:36:24;;;;;;;7.15;2.13;;;;;;;7.15;87.54;102335.28;4922105;29;20035;-90
2021/10/16 04:38:50;;;;;;;8.23;2.13;;;;;;;7.15;88.09;102335.28;4922634;29;20078;-91
2021/10/16 04:41:16;;;;;;;6.63;1.92;;;;;;;7.12;88.22;102338.78;4938099;29;20043;-90
2021/10/16 04:43:42;;;;;;;5.82;2.38;;;;;;;7.09;88.21;102336.16;4937931;29;20028;-90
2021/10/16 04:46:08;;;;;;;11.20;3.05;;;;;;;7.05;88.56;102342.25;4922633;29;20046;-90
2021/10/16 04:48:44;;;;;;;9.00;2.58;;;;;;;7.03;88.10;102342.25;4921697;29;20082;-90
2021/10/16 04:51:10;;;;;;;10.30;2.80;;;;;;;7.01;87.97;102338.78;4923511;29;20036;-90
2021/10/16 04:53:36;;;;;;;4.50;2.47;;;;;;;6.99;88.03;102339.69;4921716;29;20035;-90
2021/10/16 04:56:01;;;;;;;11.93;2.53;;;;;;;6.98;88.36;102341.38;4938262;29;20066;-90
2021/10/16 04:58:26;;;;;;;7.75;2.00;;;;;;;6.96;88.62;102345.75;4956620;29;20034;-89
2021/10/16 05:00:52;;;;;;;7.53;2.40;;;;;;;6.95;88.70;102343.13;4941010;29;20059;-90
2021/10/16 05:03:17;;;;;;;9.55;2.80;;;;;;;6.92;88.86;102342.28;4940953;29;20199;-90
2021/10/16 05:05:43;;;;;;;17.45;2.95;;;;;;;6.93;89.19;102337.94;4940692;29;20039;-90
2021/10/16 05:08:09;;;;;;;14.52;2.30;;;;;;;6.92;89.20;102339.66;4941221;29;20465;-90
2021/10/16 05:10:34;;;;;;;6.57;2.33;;;;;;;6.93;89.50;102340.56;4940601;29;20146;-90
2021/10/16 05:13:00;;;;;;;8.52;2.40;;;;;;;6.91;89.74;102332.75;4924696;29;20066;-90
2021/10/16 05:15:25;;;;;;;10.93;2.80;;;;;;;6.95;89.95;102332.72;4940630;29;20053;-90
2021/10/16 05:17:51;;;;;;;7.13;2.08;;;;;;;6.98;90.27;102328.38;4941368;29;20043;-90
2021/10/16 05:20:16;;;;;;;8.40;2.10;;;;;;;7.00;90.13;102325.75;4940623;29;20035;-90
2021/10/16 05:22:42;;;;;;;10.70;2.80;;;;;;;7.03;90.60;102325.75;4940757;29;20050;-90
2021/10/16 05:25:07;;;;;;;6.97;2.63;;;;;;;7.05;90.63;102322.28;4956731;28;20035;-90
2021/10/16 05:27:33;;;;;;;8.93;2.13;;;;;;;7.08;90.92;102329.22;4940483;29;20042;-90
2021/10/16 05:29:58;;;;;;;10.65;2.15;;;;;;;7.13;91.15;102331.81;4956782;29;20031;-90
2021/10/16 05:32:24;;;;;;;7.03;2.08;;;;;;;7.16;91.21;102329.22;4940042;29;20035;-90
2021/10/16 05:34:49;;;;;;;10.50;2.50;;;;;;;7.20;91.31;102330.94;4940722;29;20270;-90
2021/10/16 05:37:15;;;;;;;6.78;2.60;;;;;;;7.23;91.46;102323.97;4940483;29;20090;-90
2021/10/16 05:39:40;;;;;;;7.93;2.20;;;;;;;7.27;91.69;102325.69;4940471;29;20382;-90
2021/10/16 05:42:07;;;;;;;11.50;2.35;;;;;;;7.29;91.95;102329.19;4958051;28;20066;-90
2021/10/16 05:44:33;;;;;;;7.18;2.20;;;;;;;7.31;91.49;102326.53;4956289;28;20332;-90
2021/10/16 05:46:59;;;;;;;11.77;2.22;;;;;;;7.34;91.63;102329.16;4940434;29;20156;-90
2021/10/16 05:49:24;;;;;;;10.35;3.00;;;;;;;7.38;91.43;102333.47;4939946;29;20082;-90
2021/10/16 05:51:51;;;;;;;14.18;2.72;;;;;;;7.39;91.47;102331.75;4940494;29;20027;-90
2021/10/16 05:54:16;;;;;;;12.40;2.30;;;;;;;7.43;91.52;102331.72;4940303;29;20245;-90
2021/10/16 05:56:42;;;;;;;3.78;1.73;;;;;;;7.47;91.32;102335.19;4934519;29;20058;-90
2021/10/16 05:59:07;;;;;;;8.82;2.15;;;;;;;7.49;91.49;102334.31;4923765;29;20220;-90
2021/10/16 06:01:33;;;;;;;14.32;2.70;;;;;;;7.52;91.66;102340.41;4924017;29;20039;-90
2021/10/16 06:03:58;;;;;;;16.13;2.95;;;;;;;7.56;91.79;102335.13;4924698;29;20343;-90
2021/10/16 06:06:24;;;;;;;9.30;2.38;;;;;;;7.60;91.69;102336.00;4924009;29;20039;-90
2021/10/16 06:08:49;;;;;;;6.05;2.67;;;;;;;7.62;91.92;102335.13;4924509;29;20101;-90
2021/10/16 06:11:14;;;;;;;10.73;2.22;;;;;;;7.64;91.79;102336.00;4924109;29;20380;-90
2021/10/16 06:13:40;;;;;;;11.90;2.22;;;;;;;7.67;91.64;102329.88;4924447;29;20035;-90
2021/10/16 06:16:05;;;;;;;6.88;2.55;;;;;;;7.70;91.48;102322.06;4940183;29;20055;-90
2021/10/16 06:18:31;;;;;;;12.95;2.45;;;;;;;7.73;91.62;102321.16;4923770;29;20031;-90
2021/10/16 06:20:56;;;;;;;7.60;2.63;;;;;;;7.76;91.52;102331.59;4924484;29;20041;-90
2021/10/16 06:23:22;;;;;;;9.23;2.38;;;;;;;7.79;91.03;102337.66;4923951;29;20055;-90
2021/10/16 06:25:47;;;;;;;10.73;2.35;;;;;;;7.82;91.45;102331.53;4942924;29;20259;-90
2021/10/16 06:28:14;;;;;;;13.02;2.80;;;;;;;7.84;91.21;102335.00;4928008;29;20035;-90
2021/10/16 06:30:42;;;;;;;11.88;2.70;;;;;;;7.87;91.01;102335.00;4928198;29;20398;-90
2021/10/16 06:33:08;;;;;;;7.25;2.30;;;;;;;7.90;91.19;102332.38;4908067;29;20106;-90
2021/10/16 06:35:37;;;;;;;14.55;2.53;;;;;;;7.94;91.11;102339.31;4952139;29;20039;-90
2021/10/16 06:38:02;;;;;;;9.32;2.70;;;;;;;7.98;91.13;102337.56;4938409;29;20034;-90
2021/10/16 06:40:28;;;;;;;15.13;2.83;;;;;;;8.01;91.21;102337.53;4924089;29;20032;-89
2021/10/16 06:42:53;;;;;;;6.90;2.92;;;;;;;8.05;91.16;102344.47;4928137;29;20472;-90
2021/10/16 06:45:19;;;;;;;15.93;3.20;;;;;;;8.09;91.33;102338.34;4931523;29;20042;-90
2021/10/16 06:47:44;;;;;;;15.95;3.15;;;;;;;8.13;91.25;102342.69;4908939;29;20115;-90
2021/10/16 06:50:10;;;;;;;13.10;3.10;;;;;;;8.18;91.43;102343.50;4921768;29;20476;-90
2021/10/16 06:52:35;;;;;;;13.57;3.25;;;;;;;8.22;91.19;102334.78;4939871;29;20048;-90
2021/10/16 06:55:00;;;;;;;13.20;3.67;;;;;;;8.28;91.40;102349.53;4948932;29;20339;-90
2021/10/16 06:57:26;;;;;;;9.05;3.38;;;;;;;8.31;91.39;102341.66;4962244;28;20039;-90
2021/10/16 06:59:51;;;;;;;9.95;2.83;;;;;;;8.38;91.11;102345.13;4940300;29;20063;-90
2021/10/16 07:02:18;;;;;;;10.60;3.33;;;;;;;8.40;91.24;102344.25;4943316;29;20034;-90
2021/10/16 07:04:43;;;;;;;13.35;2.95;;;;;;;8.46;91.21;102351.19;4927869;29;20046;-90
2021/10/16 07:07:08;;;;;;;9.52;2.45;;;;;;;8.50;91.25;102333.75;4926478;29;20039;-90
2021/10/16 07:09:34;;;;;;;8.93;2.42;;;;;;;8.53;90.93;102337.22;4917709;29;20031;-90
2021/10/16 07:11:59;;;;;;;12.93;2.67;;;;;;;8.58;90.80;102337.16;4935906;29;20035;-90
2021/10/16 07:14:25;;;;;;;8.90;2.75;;;;;;;8.62;90.81;102344.97;4902630;29;20039;-90
2021/10/16 07:16:50;;;;;;;9.65;2.88;;;;;;;8.64;90.68;102342.31;4918475;29;20031;-90
2021/10/16 07:19:16;;;;;;;14.57;3.60;;;;;;;8.70;90.63;102346.66;4938129;29;20046;-90
2021/10/16 07:21:41;;;;;;;15.38;4.05;;;;;;;8.74;90.68;102343.13;4905252;28;20326;-90
2021/10/16 07:24:07;;;;;;;13.13;2.97;;;;;;;8.78;90.60;102350.03;4907706;28;20023;-90
2021/10/16 07:26:33;;;;;;;13.73;3.42;;;;;;;8.80;90.60;102349.16;4907649;29;20031;-90
2021/10/16 07:28:58;;;;;;;14.73;3.58;;;;;;;8.84;90.64;102350.84;4905282;29;20051;-90
2021/10/16 07:31:28;;;;;;;15.50;3.85;;;;;;;8.89;90.76;102352.56;4948392;29;20039;-90
2021/10/16 07:33:56;;;;;;;12.93;3.67;;;;;;;8.93;90.65;102360.38;4918225;28;20473;-90
2021/10/16 07:36:22;;;;;;;12.52;3.45;;;;;;;8.99;90.58;102364.66;4926440;29;20274;-90
2021/10/16 07:38:47;;;;;;;14.25;3.42;;;;;;;9.03;90.60;102358.50;4938779;28;20046;-90
2021/10/16 07:41:13;;;;;;;13.55;3.10;;;;;;;9.07;90.42;102362.81;4938290;29;20312;-89
2021/10/16 07:43:38;;;;;;;10.55;3.40;;;;;;;9.11;90.15;102364.50;4943575;29;20038;-89
2021/10/16 07:46:03;;;;;;;19.20;4.10;;;;;;;9.15;90.34;102360.13;4953826;28;20047;-90
2021/10/16 07:48:29;;;;;;;19.30;3.63;;;;;;;9.18;90.34;102360.97;4923391;29;20028;-90
2021/10/16 07:50:54;;;;;;;12.10;3.17;;;;;;;9.21;90.09;102363.53;4935137;29;20044;-90
2021/10/16 07:53:20;;;;;;;11.88;2.90;;;;;;;9.23;89.90;102361.78;4948312;28;20034;-90
2021/10/16 07:55:45;;;;;;;17.50;3.55;;;;;;;9.27;89.72;102361.75;4926401;28;20043;-90
2021/10/16 07:58:11;;;;;;;9.13;2.72;;;;;;;9.31;89.51;102369.53;4941786;28;20045;-90
2021/10/16 08:00:36;;;;;;;17.55;4.50;;;;;;;9.34;89.36;102363.41;4922068;29;20065;-90
2021/10/16 08:03:02;;;;;;;17.13;4.35;;;;;;;9.36;88.99;102374.72;4926210;28;20363;-90
2021/10/16 08:05:27;;;;;;;13.93;4.03;;;;;;;9.37;88.87;102377.31;4916999;29;20035;-90
2021/10/16 08:07:52;;;;;;;11.23;3.60;;;;;;;9.39;88.77;102372.09;4933206;28;20163;-90
2021/10/16 08:10:18;;;;;;;17.08;3.38;;;;;;;9.40;88.38;102369.47;4941782;29;20042;-90
2021/10/16 08:12:43;;;;;;;9.52;3.03;;;;;;;9.40;88.01;102372.06;4949637;28;20034;-89
2021/10/16 08:15:09;;;;;;;8.75;3.60;;;;;;;9.44;88.50;102372.91;4937805;29;20115;-90
2021/10/16 08:17:35;;;;;;;12.85;3.22;;;;;;;9.45;88.39;102372.00;4922333;29;20043;-90
2021/10/16 08:20:00;;;;;;;12.48;3.28;;;;;;;9.45;87.76;102364.16;4919394;28;20350;-90
2021/10/16 08:22:28;;;;;;;12.07;3.40;;;;;;;9.46;87.66;102368.53;4931005;28;20154;-90
2021/10/16 08:24:53;;;;;;;17.33;3.63;;;;;;;9.50;87.80;102371.97;4935045;29;20032;-90
2021/10/16 08:27:19;;;;;;;11.55;4.05;;;;;;;9.52;88.06;102372.81;4929377;28;20043;-91
2021/10/16 08:29:44;;;;;;;17.25;4.30;;;;;;;9.53;88.04;102370.19;4921868;29;20039;-90
2021/10/16 08:32:09;;;;;;;13.02;3.45;;;;;;;9.54;87.63;102369.28;4923925;29;20219;-90
2021/10/16 08:34:35;;;;;;;12.18;3.80;;;;;;;9.57;87.38;102363.16;4923671;29;20342;-90
2021/10/16 08:37:00;;;;;;;14.10;3.40;;;;;;;9.59;87.35;102377.09;4943234;29;20027;-90
2021/10/16 08:39:27;;;;;;;14.48;3.30;;;;;;;9.60;87.33;102378.81;4938664;29;20039;-90
2021/10/16 08:41:52;;;;;;;8.05;3.20;;;;;;;9.60;87.75;102379.69;4925841;29;20039;-90
2021/10/16 08:44:21;;;;;;;9.25;3.05;;;;;;;9.63;86.86;102381.38;4958204;28;20234;-90
2021/10/16 08:46:49;;;;;;;19.08;3.28;;;;;;;9.68;86.99;102383.94;4938342;29;20046;-90
2021/10/16 08:49:15;;;;;;;11.50;3.70;;;;;;;9.68;87.84;102384.81;4901017;29;20061;-90
2021/10/16 08:51:41;;;;;;;18.38;3.78;;;;;;;9.74;88.10;102391.72;4923144;29;20038;-90
2021/10/16 08:54:07;;;;;;;14.88;3.38;;;;;;;9.72;88.10;102386.50;4918747;28;20384;-90
2021/10/16 08:56:37;;;;;;;15.27;3.33;;;;;;;9.75;87.73;102391.72;4907583;29;20031;-90
2021/10/16 08:59:05;;;;;;;12.63;3.72;;;;;;;9.74;87.72;102389.97;4915072;29;20031;-90
2021/10/16 09:01:33;;;;;;;9.25;2.85;;;;;;;9.78;88.48;102404.72;4920805;29;20023;-90
2021/10/16 09:04:00;;;;;;;9.50;3.05;;;;;;;9.82;88.49;102404.69;4908094;29;20036;-90
2021/10/16 09:06:30;;;;;;;11.52;3.53;;;;;;;9.82;88.82;102396.84;4923870;28;20428;-89
2021/10/16 09:09:07;;;;;;;10.32;3.00;;;;;;;9.81;88.55;102406.47;4926550;29;20168;-90
2021/10/16 09:11:46;;;;;;;13.75;3.28;;;;;;;9.82;87.95;102415.16;4945783;28;20358;-90
2021/10/16 09:14:13;;;;;;;10.43;3.40;;;;;;;9.80;87.36;102405.59;4956134;28;20045;-90
2021/10/16 09:16:42;;;;;;;11.07;3.00;;;;;;;9.80;87.18;102405.59;4931940;28;20037;-90
2021/10/16 09:19:12;;;;;;;8.25;3.40;;;;;;;9.83;86.98;102406.44;4942702;29;20047;-90
2021/10/16 09:21:46;;;;;;;13.23;2.95;;;;;;;9.84;87.16;102397.69;4958453;28;20027;-90
2021/10/16 09:24:15;;;;;;;10.68;3.22;;;;;;;9.87;87.65;102405.50;4950586;29;20163;-90
2021/10/16 09:26:42;;;;;;;13.63;2.97;;;;;;;9.86;87.50;102401.16;4931803;29;20028;-90
2021/10/16 09:29:08;;;;;;;20.13;2.90;;;;;;;9.86;86.81;102393.31;4921657;29;20043;-90
2021/10/16 09:31:41;;;;;;;11.23;3.33;;;;;;;9.87;87.04;102403.75;4946547;28;20070;-90
2021/10/16 09:34:06;;;;;;;11.02;2.83;;;;;;;9.89;87.27;102399.38;4950761;28;20365;-90
2021/10/16 09:36:32;;;;;;;15.38;3.53;;;;;;;9.90;86.96;102395.03;4954949;28;20046;-90
2021/10/16 09:38:58;;;;;;;14.35;3.17;;;;;;;9.90;86.15;102392.41;4943008;28;20335;-90
2021/10/16 09:41:35;;;;;;;12.13;2.78;;;;;;;9.92;86.15;102393.25;4922223;28;20041;-90
2021/10/16 09:44:01;;;;;;;11.88;2.38;;;;;;;9.93;86.13;102398.47;4948149;28;20304;-90
2021/10/16 09:46:26;;;;;;;12.38;2.72;;;;;;;9.94;85.88;102397.56;4944601;29;20039;-90
2021/10/16 09:48:52;;;;;;;10.10;2.80;;;;;;;9.98;86.53;102396.63;4924409;29;20039;-90
2021/10/16 09:51:21;;;;;;;15.50;4.10;;;;;;;10.02;87.15;102401.81;4939705;29;20032;-90
2021/10/16 09:53:48;;;;;;;10.32;2.83;;;;;;;10.04;87.18;102394.81;4932737;28;20418;-90
2021/10/16 09:56:13;;;;;;;10.32;3.03;;;;;;;10.05;87.40;102402.66;4920691;28;20070;-90
2021/10/16 09:58:40;;;;;;;14.98;2.80;;;;;;;10.06;86.61;102400.88;4908716;28;20027;-90
2021/10/16 10:01:05;;;;;;;17.80;3.28;;;;;;;10.08;86.79;102402.63;4925256;29;20380;-90
2021/10/16 10:03:31;;;;;;;12.43;3.20;;;;;;;10.08;86.25;102400.00;4927638;28;20277;-90
2021/10/16 10:05:57;;;;;;;12.90;2.78;;;;;;;10.14;86.59;102404.28;4928476;29;20098;-90
2021/10/16 10:08:22;;;;;;;18.17;3.58;;;;;;;10.16;86.85;102398.13;4951919;28;20238;-90
2021/10/16 10:10:50;;;;;;;10.68;3.20;;;;;;;10.21;86.92;102410.31;4958670;28;20264;-90
2021/10/16 10:13:16;;;;;;;13.43;3.33;;;;;;;10.26;87.65;102411.09;4968451;28;20338;-90
2021/10/16 10:15:41;;;;;;;15.93;3.75;;;;;;;10.29;87.46;102416.28;4931952;28;20030;-90
2021/10/16 10:20:52;;;;;;;12.85;3.15;;;;;;;10.37;87.95;102406.63;4933324;29;20042;-90
2021/10/16 10:23:21;;;;;;;13.02;3.50;;;;;;;10.42;88.07;102403.91;4932555;29;20051;-90
2021/10/16 10:25:46;;;;;;;17.83;3.80;;;;;;;10.46;87.62;102392.50;4945814;28;20042;-90
2021/10/16 10:28:12;;;;;;;15.05;3.38;;;;;;;10.53;87.57;102389.78;4954579;28;20045;-90
2021/10/16 10:30:41;;;;;;;8.60;2.85;;;;;;;10.58;86.83;102394.94;4940232;29;20551;-90
2021/10/16 10:33:15;;;;;;;11.90;3.08;;;;;;;10.63;86.63;102394.88;4943118;28;20065;-90
2021/10/16 10:36:03;;;;;;;9.82;3.08;;;;;;;10.66;85.79;102389.56;4950845;28;20066;-90
2021/10/16 10:38:33;;;;;;;13.15;3.42;;;;;;;10.70;85.86;102392.13;4965083;28;20026;-90
2021/10/16 10:41:23;;;;;;;13.00;2.95;;;;;;;10.73;85.54;102385.94;4933901;28;20038;-90
2021/10/16 10:43:49;;;;;;;9.15;2.67;;;;;;;10.77;85.15;102385.03;4929133;28;20033;-90
2021/10/16 10:46:14;;;;;;;10.05;2.83;;;;;;;10.82;84.98;102392.78;4927539;29;20085;-90
2021/10/16 10:48:44;;;;;;;13.20;3.17;;;;;;;10.85;84.66;102387.50;4954968;28;20039;-90
2021/10/16 10:51:09;;;;;;;13.00;2.83;;;;;;;10.85;84.00;102390.13;4928653;29;20042;-90
2021/10/16 10:53:37;;;;;;;14.75;3.15;;;;;;;10.91;84.15;102374.28;4926843;28;20043;-89
2021/10/16 10:56:03;;;;;;;11.02;2.83;;;;;;;10.99;84.49;102380.28;4932919;28;20035;-89
2021/10/16 10:58:56;;;;;;;8.27;2.95;;;;;;;11.05;83.68;102374.06;4951550;28;20264;-90
2021/10/16 11:01:49;;;;;;;9.80;2.10;;;;;;;11.10;83.31;102385.31;4964795;28;20336;-90
2021/10/16 11:04:34;;;;;;;13.45;2.97;;;;;;;11.14;83.25;102385.22;4960447;28;20035;-90
2021/10/16 11:07:02;;;;;;;6.85;2.00;;;;;;;11.16;82.77;102384.34;4963227;28;20038;-90
2021/10/16 11:09:28;;;;;;;6.45;2.55;;;;;;;11.16;82.48;102381.72;4940722;28;20039;-90
2021/10/16 11:11:53;;;;;;;13.18;2.60;;;;;;;11.15;82.46;102372.97;4949280;28;20223;-90
2021/10/16 11:14:18;;;;;;;10.63;2.75;;;;;;;11.14;82.13;102379.97;4931355;29;20043;-89
2021/10/16 11:16:58;;;;;;;5.95;2.63;;;;;;;11.12;81.66;102373.06;4916523;29;20094;-90
2021/10/16 11:19:24;;;;;;;7.97;2.60;;;;;;;11.14;81.56;102374.75;4950016;28;20262;-89
2021/10/16 11:21:56;;;;;;;8.65;2.30;;;;;;;11.19;82.00;102371.16;4931166;28;20043;-90
2021/10/16 11:24:22;;;;;;;11.75;2.78;;;;;;;11.18;81.37;102378.16;4924585;29;20116;-89
2021/10/16 11:26:55;;;;;;;9.60;2.17;;;;;;;11.19;81.47;102379.03;4936360;28;20054;-90